createdAt,value
2022-11-01T00:01:21.314Z,10.89
2022-11-01T00:04:22.849Z,10.89
2022-11-01T00:07:24.353Z,10.86
2022-11-01T00:10:25.689Z,10.80
2022-11-01T00:13:27.042Z,10.74
2022-11-01T00:16:28.554Z,10.70
2022-11-01T00:19:29.887Z,10.67
2022-11-01T00:22:31.234Z,10.64
2022-11-01T00:25:32.555Z,10.60
2022-11-01T00:28:34.339Z,10.56
2022-11-01T00:31:35.691Z,10.56
2022-11-01T00:34:37.034Z,10.56
2022-11-01T00:37:38.379Z,10.56
2022-11-01T00:40:39.859Z,10.57
2022-11-01T00:43:41.219Z,10.56
2022-11-01T00:46:42.547Z,10.56
2022-11-01T00:49:43.947Z,10.57
2022-11-01T00:52:45.303Z,10.57
2022-11-01T00:55:46.655Z,10.54
2022-11-01T00:58:47.973Z,10.52
2022-11-01T01:01:49.371Z,10.51
2022-11-01T01:04:54.214Z,10.51
2022-11-01T01:07:55.553Z,10.53
2022-11-01T01:10:56.904Z,10.51
2022-11-01T01:13:58.247Z,10.47
2022-11-01T01:16:59.665Z,10.45
2022-11-01T01:20:00.992Z,10.43
2022-11-01T01:23:02.640Z,10.45
2022-11-01T01:26:08.342Z,10.45
2022-11-01T01:29:09.741Z,10.45
2022-11-01T01:32:21.592Z,10.46
2022-11-01T01:35:22.965Z,10.47
2022-11-01T01:38:24.361Z,10.49
2022-11-01T01:41:25.755Z,10.54
2022-11-01T01:44:48.650Z,10.54
2022-11-01T01:47:52.913Z,10.55
2022-11-01T01:51:03.173Z,10.58
2022-11-01T01:54:05.378Z,10.60
2022-11-01T01:57:08.115Z,10.59
2022-11-01T02:00:10.087Z,10.61
2022-11-01T02:03:15.066Z,10.65
2022-11-01T02:06:19.102Z,10.64
2022-11-01T02:09:21.362Z,10.67
2022-11-01T02:12:26.239Z,10.70
2022-11-01T02:15:47.047Z,10.76
2022-11-01T02:19:10.758Z,10.79
2022-11-01T02:22:21.075Z,10.72
2022-11-01T02:25:39.163Z,10.85
2022-11-01T02:29:05.803Z,10.84
2022-11-01T02:32:07.359Z,10.90
2022-11-01T02:35:33.125Z,10.95
2022-11-01T02:38:50.883Z,10.98
2022-11-01T02:42:03.257Z,11.04
2022-11-01T02:45:30.899Z,11.06
2022-11-01T02:48:32.361Z,11.01
2022-11-01T02:51:36.004Z,11.04
2022-11-01T02:54:44.946Z,11.03
2022-11-01T02:57:46.597Z,11.02
2022-11-01T03:00:48.125Z,11.01
2022-11-01T03:03:51.461Z,10.97
2022-11-01T03:06:56.200Z,10.82
2022-11-01T03:09:57.714Z,10.88
2022-11-01T03:13:08.650Z,10.90
2022-11-01T03:16:31.828Z,10.89
2022-11-01T03:19:51.619Z,10.94
2022-11-01T03:23:00.896Z,10.97
2022-11-01T03:26:07.489Z,11.01
2022-11-01T03:29:11.598Z,11.04
2022-11-01T03:32:16.122Z,11.07
2022-11-01T03:35:22.121Z,11.08
2022-11-01T03:38:28.454Z,11.11
2022-11-01T03:41:34.319Z,11.13
2022-11-01T03:44:40.930Z,11.18
2022-11-01T03:47:42.711Z,11.14
2022-11-01T03:50:52.636Z,11.11
2022-11-01T03:53:53.978Z,11.12
2022-11-01T03:56:55.914Z,11.15
2022-11-01T03:59:57.379Z,11.16
2022-11-01T04:02:59.761Z,11.15
2022-11-01T04:06:01.411Z,11.14
2022-11-01T04:09:03.050Z,11.15
2022-11-01T04:12:04.608Z,11.18
2022-11-01T04:15:06.792Z,11.17
2022-11-01T04:18:21.669Z,11.18
2022-11-01T04:21:25.428Z,11.19
2022-11-01T04:24:26.778Z,11.17
2022-11-01T04:27:28.096Z,11.14
2022-11-01T04:30:30.024Z,11.13
2022-11-01T04:33:31.972Z,11.09
2022-11-01T04:36:33.598Z,11.06
2022-11-01T04:39:34.935Z,11.04
2022-11-01T04:42:37.573Z,11.03
2022-11-01T04:45:39.721Z,11.03
2022-11-01T04:48:41.560Z,11.02
2022-11-01T04:51:42.910Z,11.04
2022-11-01T04:54:44.270Z,11.10
2022-11-01T04:57:45.605Z,11.12
2022-11-01T05:00:47.175Z,11.12
2022-11-01T05:03:48.770Z,11.11
2022-11-01T05:06:50.143Z,11.10
2022-11-01T05:09:51.498Z,11.09
2022-11-01T05:12:52.850Z,11.10
2022-11-01T05:16:17.975Z,11.10
2022-11-01T05:19:16.272Z,11.10
2022-11-01T05:22:17.662Z,11.10
2022-11-01T05:25:19.046Z,11.11
2022-11-01T05:28:20.585Z,11.20
2022-11-01T05:31:22.004Z,11.29
2022-11-01T05:34:23.424Z,11.37
2022-11-01T05:37:28.113Z,11.44
2022-11-01T05:40:30.648Z,11.52
2022-11-01T05:43:32.152Z,11.56
2022-11-01T05:46:33.512Z,11.60
2022-11-01T05:49:34.836Z,11.64
2022-11-01T05:52:36.281Z,11.65
2022-11-01T05:55:37.792Z,11.68
2022-11-01T05:58:39.149Z,11.69
2022-11-01T06:01:40.893Z,11.73
2022-11-01T06:04:42.295Z,11.78
2022-11-01T06:07:43.654Z,11.79
2022-11-01T06:10:45.011Z,11.81
2022-11-01T06:13:46.374Z,11.83
2022-11-01T06:16:47.725Z,11.87
2022-11-01T06:19:49.079Z,11.88
2022-11-01T06:22:50.470Z,11.90
2022-11-01T06:25:59.379Z,11.92
2022-11-01T06:29:00.916Z,11.91
2022-11-01T06:32:03.863Z,11.96
2022-11-01T06:35:05.615Z,11.98
2022-11-01T06:38:07.435Z,12.00
2022-11-01T06:41:08.853Z,12.02
2022-11-01T06:44:10.231Z,12.03
2022-11-01T06:47:12.908Z,12.04
2022-11-01T06:50:14.300Z,12.04
2022-11-01T06:53:15.657Z,12.05
2022-11-01T06:56:16.994Z,12.09
2022-11-01T06:59:18.337Z,12.13
2022-11-01T07:02:20.203Z,12.13
2022-11-01T07:05:22.385Z,12.21
2022-11-01T07:08:23.728Z,12.23
2022-11-01T07:11:30.928Z,12.23
2022-11-01T07:14:32.716Z,12.27
2022-11-01T07:17:34.057Z,12.30
2022-11-01T07:20:36.439Z,12.36
2022-11-01T07:23:38.170Z,12.41
2022-11-01T07:26:39.543Z,12.53
2022-11-01T07:29:41.009Z,12.59
2022-11-01T07:32:42.359Z,12.62
2022-11-01T07:35:44.198Z,12.66
2022-11-01T07:38:45.509Z,12.71
2022-11-01T07:41:46.859Z,12.81
2022-11-01T07:44:48.186Z,12.90
2022-11-01T07:47:49.802Z,12.95
2022-11-01T07:50:55.887Z,13.01
2022-11-01T07:53:58.254Z,13.08
2022-11-01T07:56:59.586Z,13.24
2022-11-01T08:00:00.931Z,13.44
2022-11-01T08:03:07.967Z,13.64
2022-11-01T08:06:09.385Z,13.85
2022-11-01T08:09:10.780Z,13.99
2022-11-01T08:12:12.119Z,14.00
2022-11-01T08:15:13.519Z,13.96
2022-11-01T08:18:15.238Z,14.07
2022-11-01T08:21:16.693Z,14.20
2022-11-01T08:24:18.511Z,14.34
2022-11-01T08:27:19.852Z,14.36
2022-11-01T08:30:21.525Z,14.30
2022-11-01T08:33:22.871Z,14.22
2022-11-01T08:36:24.269Z,14.19
2022-11-01T08:39:26.418Z,14.19
2022-11-01T08:42:27.750Z,14.26
2022-11-01T08:45:29.080Z,14.30
2022-11-01T08:48:30.403Z,14.36
2022-11-01T08:51:31.717Z,14.55
2022-11-01T08:54:33.699Z,14.78
2022-11-01T08:57:35.493Z,14.93
2022-11-01T09:00:37.166Z,14.96
2022-11-01T09:03:38.523Z,15.02
2022-11-01T09:06:39.870Z,15.03
2022-11-01T09:09:41.189Z,14.97
2022-11-01T09:12:43.094Z,14.96
2022-11-01T09:15:44.541Z,14.99
2022-11-01T09:18:46.000Z,15.00
2022-11-01T09:21:47.370Z,15.01
2022-11-01T09:24:48.812Z,15.00
2022-11-01T09:27:50.127Z,14.99
2022-11-01T09:31:01.444Z,14.98
2022-11-01T09:34:09.502Z,14.98
2022-11-01T09:37:10.843Z,15.02
2022-11-01T09:40:12.726Z,15.03
2022-11-01T09:43:20.223Z,15.02
2022-11-01T09:46:23.929Z,15.08
2022-11-01T09:49:31.639Z,15.06
2022-11-01T09:52:33.142Z,15.08
2022-11-01T09:55:34.419Z,15.08
2022-11-01T09:59:12.529Z,14.99
2022-11-01T10:02:41.071Z,14.99
2022-11-01T10:05:42.417Z,15.05
2022-11-01T10:08:53.825Z,15.14
2022-11-01T10:12:10.291Z,15.61
2022-11-01T10:15:45.248Z,15.94
2022-11-01T10:18:56.450Z,16.25
2022-11-01T10:22:00.027Z,16.38
2022-11-01T10:25:10.583Z,16.34
2022-11-01T10:28:25.085Z,16.45
2022-11-01T10:31:27.713Z,16.54
2022-11-01T10:34:36.132Z,16.57
2022-11-01T10:37:58.152Z,16.67
2022-11-01T10:41:09.345Z,16.65
2022-11-01T10:44:32.456Z,16.66
2022-11-01T10:47:33.814Z,16.65
2022-11-01T10:50:35.204Z,16.56
2022-11-01T10:53:49.532Z,16.29
2022-11-01T10:56:54.204Z,16.39
2022-11-01T10:59:57.154Z,16.38
2022-11-01T11:03:03.090Z,16.47
2022-11-01T11:06:08.485Z,16.47
2022-11-01T11:09:21.750Z,16.58
2022-11-01T11:12:23.641Z,16.45
2022-11-01T11:15:42.802Z,16.59
2022-11-01T11:19:00.098Z,16.56
2022-11-01T11:22:06.617Z,16.55
2022-11-01T11:25:16.535Z,16.52
2022-11-01T11:28:27.568Z,16.51
2022-11-01T11:31:32.504Z,16.56
2022-11-01T11:34:37.194Z,16.58
2022-11-01T11:37:39.810Z,16.58
2022-11-01T11:40:41.132Z,16.51
2022-11-01T11:43:42.507Z,16.52
2022-11-01T11:46:58.931Z,16.56
2022-11-01T11:50:00.294Z,16.46
2022-11-01T11:53:05.088Z,16.45
2022-11-01T11:56:07.423Z,16.52
2022-11-01T11:59:43.115Z,16.37
2022-11-01T12:02:47.904Z,16.44
2022-11-01T12:06:08.580Z,16.47
2022-11-01T12:09:47.000Z,16.33
2022-11-01T12:12:52.030Z,16.21
2022-11-01T12:16:06.297Z,16.19
2022-11-01T12:19:26.497Z,16.24
2022-11-01T12:22:31.584Z,16.31
2022-11-01T12:25:34.933Z,16.44
2022-11-01T12:28:45.356Z,16.36
2022-11-01T12:31:49.101Z,16.30
2022-11-01T12:34:52.813Z,16.20
2022-11-01T12:38:09.805Z,16.11
2022-11-01T12:41:33.774Z,16.05
2022-11-01T12:44:45.437Z,16.04
2022-11-01T12:47:50.633Z,16.06
2022-11-01T12:50:58.334Z,15.93
2022-11-01T12:54:07.998Z,15.92
2022-11-01T12:57:15.358Z,16.08
2022-11-01T13:00:19.578Z,16.08
2022-11-01T13:03:46.530Z,16.24
2022-11-01T13:07:21.613Z,16.43
2022-11-01T13:10:37.524Z,16.37
2022-11-01T13:14:11.202Z,16.29
2022-11-01T13:17:12.412Z,16.14
2022-11-01T13:20:32.298Z,16.20
2022-11-01T13:23:50.456Z,16.25
2022-11-01T13:27:17.682Z,16.22
2022-11-01T13:30:20.260Z,16.25
2022-11-01T13:33:35.124Z,16.23
2022-11-01T13:37:05.352Z,16.05
2022-11-01T13:40:18.313Z,15.93
2022-11-01T13:43:24.307Z,15.95
2022-11-01T13:47:03.322Z,15.86
2022-11-01T13:50:19.745Z,15.76
2022-11-01T13:53:33.921Z,15.76
2022-11-01T13:56:42.515Z,15.69
2022-11-01T13:59:56.279Z,15.63
2022-11-01T14:02:58.462Z,15.57
2022-11-01T14:09:43.135Z,15.46
2022-11-01T14:13:05.890Z,15.40
2022-11-01T14:16:16.403Z,15.27
2022-11-01T14:19:21.440Z,15.21
2022-11-01T14:22:22.833Z,15.14
2022-11-01T14:25:24.144Z,15.07
2022-11-01T14:28:25.489Z,15.03
2022-11-01T14:31:30.083Z,15.01
2022-11-01T14:34:34.294Z,15.00
2022-11-01T14:37:47.139Z,14.96
2022-11-01T14:40:57.230Z,14.91
2022-11-01T14:44:05.653Z,14.90
2022-11-01T14:47:39.694Z,14.80
2022-11-01T14:50:50.380Z,14.77
2022-11-01T14:54:18.112Z,14.74
2022-11-01T14:57:26.385Z,14.67
2022-11-01T15:00:31.787Z,14.61
2022-11-01T15:03:33.170Z,14.53
2022-11-01T15:06:34.493Z,14.44
2022-11-01T15:09:35.889Z,14.38
2022-11-01T15:12:47.514Z,14.32
2022-11-01T15:16:03.518Z,14.21
2022-11-01T15:19:16.037Z,14.15
2022-11-01T15:22:19.214Z,14.03
2022-11-01T15:25:22.161Z,13.76
2022-11-01T15:28:25.991Z,13.84
2022-11-01T15:31:28.578Z,13.77
2022-11-01T15:34:32.174Z,13.69
2022-11-01T15:37:33.608Z,13.62
2022-11-01T15:40:35.177Z,13.48
2022-11-01T15:43:36.532Z,13.33
2022-11-01T15:46:40.723Z,13.26
2022-11-01T15:49:54.922Z,13.17
2022-11-01T15:52:56.360Z,13.15
2022-11-01T15:56:05.571Z,13.10
2022-11-01T15:59:26.226Z,13.03
2022-11-01T16:02:40.984Z,12.90
2022-11-01T16:05:56.875Z,12.84
2022-11-01T16:09:14.974Z,12.77
2022-11-01T16:12:20.575Z,12.76
2022-11-01T16:15:27.741Z,12.71
2022-11-01T16:18:33.346Z,12.68
2022-11-01T16:21:35.443Z,12.60
2022-11-01T16:24:36.785Z,12.57
2022-11-01T16:28:02.623Z,12.52
2022-11-01T16:31:16.997Z,12.46
2022-11-01T16:34:24.193Z,12.49
2022-11-01T16:37:29.490Z,12.51
2022-11-01T16:40:30.819Z,12.48
2022-11-01T16:43:34.245Z,12.49
2022-11-01T16:46:35.627Z,12.44
2022-11-01T16:49:36.982Z,12.39
2022-11-01T16:52:38.324Z,12.33
2022-11-01T16:55:39.769Z,12.28
2022-11-01T16:58:41.485Z,12.22
2022-11-01T17:01:45.895Z,12.16
2022-11-01T17:04:50.342Z,12.14
2022-11-01T17:07:51.850Z,12.09
2022-11-01T17:10:53.229Z,12.08
2022-11-01T17:13:54.574Z,12.04
2022-11-01T17:16:56.520Z,12.02
2022-11-01T17:20:01.391Z,12.00
2022-11-01T17:23:02.850Z,11.96
2022-11-01T17:26:04.886Z,11.96
2022-11-01T17:29:06.231Z,11.91
2022-11-01T17:32:07.550Z,11.87
2022-11-01T17:35:09.061Z,11.84
2022-11-01T17:38:14.592Z,11.84
2022-11-01T17:41:18.335Z,11.81
2022-11-01T17:44:19.666Z,11.81
2022-11-01T17:47:20.991Z,11.81
2022-11-01T17:50:22.511Z,11.77
2022-11-01T17:53:23.859Z,11.73
2022-11-01T17:56:25.373Z,11.69
2022-11-01T17:59:26.688Z,11.64
2022-11-01T18:02:28.234Z,11.61
2022-11-01T18:05:29.647Z,11.57
2022-11-01T18:08:33.837Z,11.58
2022-11-01T18:11:52.415Z,11.52
2022-11-01T18:15:00.385Z,11.48
2022-11-01T18:18:43.768Z,11.40
2022-11-01T18:21:51.131Z,11.43
2022-11-01T18:24:55.564Z,11.43
2022-11-01T18:28:00.567Z,11.41
2022-11-01T18:31:11.059Z,11.37
2022-11-01T18:34:44.215Z,11.28
2022-11-01T18:38:09.079Z,11.19
2022-11-01T18:41:16.593Z,11.16
2022-11-01T18:44:17.978Z,11.11
2022-11-01T18:47:22.888Z,11.09
2022-11-01T18:50:25.751Z,11.07
2022-11-01T18:53:28.308Z,11.13
2022-11-01T18:56:29.676Z,11.12
2022-11-01T18:59:37.713Z,11.16
2022-11-01T19:02:39.796Z,11.14
2022-11-01T19:05:42.092Z,11.14
2022-11-01T19:08:49.540Z,11.13
2022-11-01T19:11:57.865Z,11.13
2022-11-01T19:15:03.189Z,11.10
2022-11-01T19:18:15.416Z,11.04
2022-11-01T19:21:19.454Z,11.02
2022-11-01T19:24:38.890Z,10.98
2022-11-01T19:27:40.566Z,10.98
2022-11-01T19:30:48.765Z,10.93
2022-11-01T19:33:51.385Z,10.91
2022-11-01T19:36:53.526Z,10.89
2022-11-01T19:39:56.649Z,10.92
2022-11-01T19:43:02.570Z,10.90
2022-11-01T19:46:04.119Z,10.99
2022-11-01T19:49:21.698Z,10.99
2022-11-01T19:52:35.678Z,10.94
2022-11-01T19:55:52.310Z,10.89
2022-11-01T19:58:55.899Z,10.86
2022-11-01T20:01:57.348Z,10.85
2022-11-01T20:04:59.961Z,10.92
2022-11-01T20:08:21.579Z,10.85
2022-11-01T20:11:22.979Z,10.92
2022-11-01T20:14:24.356Z,10.90
2022-11-01T20:17:25.696Z,10.91
2022-11-01T20:20:27.044Z,10.89
2022-11-01T20:23:28.832Z,10.88
2022-11-01T20:26:31.007Z,10.83
2022-11-01T20:29:32.348Z,10.84
2022-11-01T20:32:33.692Z,10.81
2022-11-01T20:35:35.113Z,10.80
2022-11-01T20:38:36.440Z,10.77
2022-11-01T20:41:37.760Z,10.72
2022-11-01T20:44:39.092Z,10.68
2022-11-01T20:47:45.364Z,10.54
2022-11-01T20:50:47.792Z,10.43
2022-11-01T20:53:49.120Z,10.34
2022-11-01T20:56:50.490Z,10.19
2022-11-01T20:59:51.814Z,10.02
2022-11-01T21:02:56.024Z,9.86
2022-11-01T21:05:57.371Z,9.75
2022-11-01T21:08:58.743Z,9.67
2022-11-01T21:12:00.172Z,9.59
2022-11-01T21:15:11.634Z,9.53
2022-11-01T21:18:12.906Z,9.45
2022-11-01T21:21:14.197Z,9.40
2022-11-01T21:24:26.247Z,9.28
2022-11-01T21:30:31.125Z,9.27
2022-11-01T21:33:37.603Z,9.25
2022-11-01T21:36:58.727Z,9.32
2022-11-01T21:40:05.813Z,9.35
2022-11-01T21:43:24.794Z,9.41
2022-11-01T21:46:32.200Z,9.49
2022-11-01T21:49:33.682Z,9.58
2022-11-01T21:52:35.025Z,9.71
2022-11-01T21:55:36.371Z,9.86
2022-11-01T21:58:37.720Z,9.89
2022-11-01T22:01:44.653Z,9.92
2022-11-01T22:04:46.044Z,9.96
2022-11-01T22:07:47.394Z,9.96
2022-11-01T22:10:48.755Z,10.00
2022-11-01T22:13:50.186Z,10.01
2022-11-01T22:16:51.774Z,10.01
2022-11-01T22:19:53.117Z,10.01
2022-11-01T22:22:54.507Z,10.03
2022-11-01T22:25:55.908Z,9.95
2022-11-01T22:28:57.632Z,9.92
2022-11-01T22:31:58.978Z,9.80
2022-11-01T22:35:00.325Z,9.74
2022-11-01T22:38:02.044Z,9.68
2022-11-01T22:41:22.429Z,9.68
2022-11-01T22:44:29.601Z,9.70
2022-11-01T22:47:30.929Z,9.66
2022-11-01T22:50:32.377Z,9.67
2022-11-01T22:53:33.852Z,9.78
2022-11-01T22:56:35.229Z,9.80
2022-11-01T22:59:44.764Z,9.85
2022-11-01T23:02:46.265Z,9.85
2022-11-01T23:05:55.256Z,9.86
2022-11-01T23:09:01.085Z,9.87
2022-11-01T23:12:03.011Z,9.85
2022-11-01T23:15:04.746Z,9.89
2022-11-01T23:18:17.770Z,9.85
2022-11-01T23:21:21.079Z,9.84
2022-11-01T23:24:22.367Z,9.72
2022-11-01T23:27:29.054Z,9.86
2022-11-01T23:30:30.394Z,9.86
2022-11-01T23:33:49.982Z,9.79
2022-11-01T23:36:51.472Z,9.78
2022-11-01T23:39:52.847Z,9.80
2022-11-01T23:42:54.199Z,9.78
2022-11-01T23:45:55.630Z,9.77
2022-11-01T23:49:01.754Z,9.76
2022-11-01T23:52:19.411Z,9.74
2022-11-01T23:55:39.471Z,9.66
2022-11-01T23:58:40.952Z,9.69
